createdAt,value
2023-04-03T00:00:50.418Z,7.78
2023-04-03T00:03:18.626Z,8.90
2023-04-03T00:05:45.486Z,8.77
2023-04-03T00:08:12.147Z,12.18
2023-04-03T00:10:39.250Z,10.35
2023-04-03T00:13:06.895Z,13.75
2023-04-03T00:15:33.786Z,11.18
2023-04-03T00:18:00.342Z,12.77
2023-04-03T00:20:28.196Z,13.80
2023-04-03T00:22:55.659Z,12.18
2023-04-03T00:25:22.654Z,10.77
2023-04-03T00:27:49.358Z,13.80
2023-04-03T00:30:18.536Z,13.80
2023-04-03T00:32:45.372Z,11.73
2023-04-03T00:35:12.258Z,11.75
2023-04-03T00:37:41.226Z,12.48
2023-04-03T00:40:10.280Z,6.65
2023-04-03T00:42:40.952Z,7.75
2023-04-03T00:45:07.494Z,12.98
2023-04-03T00:47:34.092Z,8.98
2023-04-03T00:50:02.009Z,7.72
2023-04-03T00:52:31.084Z,8.85
2023-04-03T00:55:06.879Z,13.32
2023-04-03T00:57:34.123Z,9.77
2023-04-03T01:00:05.846Z,9.85
2023-04-03T01:02:32.685Z,9.15
2023-04-03T01:04:59.473Z,10.55
2023-04-03T01:07:32.146Z,8.20
2023-04-03T01:10:02.612Z,8.48
2023-04-03T01:12:37.299Z,7.97
2023-04-03T01:15:10.674Z,7.20
2023-04-03T01:17:39.593Z,10.88
2023-04-03T01:20:24.262Z,8.23
2023-04-03T01:22:53.680Z,7.75
2023-04-03T01:25:20.402Z,8.77
2023-04-03T01:27:46.989Z,10.00
2023-04-03T01:30:15.235Z,10.18
2023-04-03T01:32:41.848Z,9.35
2023-04-03T01:35:10.606Z,8.68
2023-04-03T01:37:37.233Z,8.48
2023-04-03T01:40:05.145Z,12.98
2023-04-03T01:42:31.957Z,9.05
2023-04-03T01:44:58.491Z,8.13
2023-04-03T01:47:25.407Z,9.27
2023-04-03T01:49:52.003Z,8.25
2023-04-03T01:52:19.545Z,9.00
2023-04-03T01:54:46.052Z,8.20
2023-04-03T01:57:14.673Z,12.02
2023-04-03T01:59:42.076Z,8.23
2023-04-03T02:02:08.785Z,10.18
2023-04-03T02:04:36.379Z,5.80
2023-04-03T02:07:03.092Z,7.85
2023-04-03T02:09:29.631Z,8.25
2023-04-03T02:11:56.400Z,8.48
2023-04-03T02:14:24.574Z,6.38
2023-04-03T02:16:51.470Z,7.93
2023-04-03T02:19:18.034Z,9.07
2023-04-03T02:21:44.678Z,9.35
2023-04-03T02:24:11.274Z,7.68
2023-04-03T02:26:37.877Z,6.07
2023-04-03T02:29:05.478Z,6.70
2023-04-03T02:31:32.140Z,10.70
2023-04-03T02:34:00.817Z,9.82
2023-04-03T02:36:27.699Z,12.35
2023-04-03T02:38:58.090Z,10.45
2023-04-03T02:41:26.486Z,14.20
2023-04-03T02:43:54.218Z,10.77
2023-04-03T02:46:20.835Z,9.10
2023-04-03T02:48:47.441Z,11.55
2023-04-03T02:51:14.098Z,7.88
2023-04-03T02:53:40.738Z,8.93
2023-04-03T02:56:13.213Z,6.15
2023-04-03T02:58:39.871Z,9.00
2023-04-03T03:01:08.078Z,8.13
2023-04-03T03:03:34.653Z,9.18
2023-04-03T03:06:13.321Z,8.63
2023-04-03T03:08:40.433Z,8.13
2023-04-03T03:11:07.850Z,10.98
2023-04-03T03:13:35.355Z,7.38
2023-04-03T03:16:02.213Z,6.85
2023-04-03T03:18:29.902Z,9.55
2023-04-03T03:20:58.598Z,7.15
2023-04-03T03:23:27.264Z,6.82
2023-04-03T03:25:58.287Z,8.15
2023-04-03T03:28:25.317Z,6.20
2023-04-03T03:30:52.019Z,7.07
2023-04-03T03:33:19.637Z,7.13
2023-04-03T03:35:46.384Z,9.07
2023-04-03T03:38:13.198Z,8.20
2023-04-03T03:40:39.994Z,5.45
2023-04-03T03:43:07.190Z,7.45
2023-04-03T03:45:34.183Z,9.70
2023-04-03T03:48:03.047Z,10.00
2023-04-03T03:50:29.628Z,8.25
2023-04-03T03:52:56.383Z,6.18
2023-04-03T03:55:23.155Z,6.35
2023-04-03T03:57:53.766Z,5.03
2023-04-03T04:00:21.377Z,6.82
2023-04-03T04:05:22.719Z,7.28
2023-04-03T04:07:49.486Z,5.93
2023-04-03T04:10:16.331Z,9.95
2023-04-03T04:12:44.656Z,8.73
2023-04-03T04:15:12.010Z,5.45
2023-04-03T04:17:39.084Z,8.73
2023-04-03T04:20:10.020Z,14.50
2023-04-03T04:22:37.075Z,7.57
2023-04-03T04:25:04.971Z,8.18
2023-04-03T04:27:32.072Z,7.22
2023-04-03T04:29:59.541Z,11.35
2023-04-03T04:32:27.500Z,10.43
2023-04-03T04:34:54.238Z,5.82
2023-04-03T04:37:21.015Z,10.48
2023-04-03T04:39:47.882Z,7.32
2023-04-03T04:42:16.741Z,13.50
2023-04-03T04:44:45.804Z,11.32
2023-04-03T04:47:13.937Z,7.85
2023-04-03T04:49:40.790Z,7.15
2023-04-03T04:52:08.171Z,7.35
2023-04-03T04:54:35.418Z,7.25
2023-04-03T04:57:02.325Z,9.13
2023-04-03T04:59:30.214Z,12.90
2023-04-03T05:01:58.626Z,15.32
2023-04-03T05:04:26.472Z,14.85
2023-04-03T05:07:00.344Z,8.43
2023-04-03T05:09:29.507Z,13.00
2023-04-03T05:11:57.221Z,16.60
2023-04-03T05:14:27.107Z,6.90
2023-04-03T05:16:55.688Z,9.50
2023-04-03T05:19:25.836Z,21.60
2023-04-03T05:21:52.612Z,14.15
2023-04-03T05:24:19.221Z,9.18
2023-04-03T05:26:45.897Z,12.05
2023-04-03T05:29:14.299Z,10.77
2023-04-03T05:31:41.685Z,11.82
2023-04-03T05:34:10.614Z,10.35
2023-04-03T05:36:38.720Z,13.27
2023-04-03T05:39:08.467Z,10.15
2023-04-03T05:41:38.253Z,12.15
2023-04-03T05:44:05.462Z,10.35
2023-04-03T05:46:32.201Z,9.68
2023-04-03T05:49:03.051Z,9.98
2023-04-03T05:51:36.074Z,11.52
2023-04-03T05:54:27.341Z,10.15
2023-04-03T05:57:01.174Z,11.23
2023-04-03T05:59:28.590Z,7.43
2023-04-03T06:01:57.806Z,9.07
2023-04-03T06:04:25.283Z,11.73
2023-04-03T06:06:58.725Z,11.93
2023-04-03T06:09:28.084Z,15.23
2023-04-03T06:11:54.745Z,9.35
2023-04-03T06:14:23.233Z,14.90
2023-04-03T06:16:50.485Z,6.95
2023-04-03T06:19:17.110Z,8.02
2023-04-03T06:21:48.253Z,9.65
2023-04-03T06:24:16.906Z,7.53
2023-04-03T06:26:44.477Z,4.78
2023-04-03T06:29:11.209Z,6.55
2023-04-03T06:31:37.861Z,8.13
2023-04-03T06:34:06.768Z,7.13
2023-04-03T06:36:35.480Z,5.72
2023-04-03T06:39:02.627Z,8.15
2023-04-03T06:41:29.142Z,7.18
2023-04-03T06:43:57.565Z,7.45
2023-04-03T06:46:24.892Z,11.57
2023-04-03T06:48:51.939Z,4.47
2023-04-03T06:51:27.780Z,10.23
2023-04-03T06:53:58.806Z,5.63
2023-04-03T06:56:27.263Z,7.97
2023-04-03T06:58:58.766Z,8.50
2023-04-03T07:01:28.784Z,10.30
2023-04-03T07:03:56.365Z,11.65
2023-04-03T07:06:24.647Z,14.80
2023-04-03T07:08:51.410Z,40.20
2023-04-03T07:11:17.967Z,14.80
2023-04-03T07:13:44.617Z,12.63
2023-04-03T07:16:12.070Z,8.98
2023-04-03T07:18:38.781Z,10.73
2023-04-03T07:21:05.475Z,7.68
2023-04-03T07:23:32.275Z,13.00
2023-04-03T07:25:58.920Z,6.28
2023-04-03T07:28:25.585Z,10.57
2023-04-03T07:31:07.621Z,9.75
2023-04-03T07:33:35.799Z,8.10
2023-04-03T07:36:02.869Z,11.15
2023-04-03T07:38:30.092Z,13.93
2023-04-03T07:40:56.668Z,13.57
2023-04-03T07:43:23.438Z,8.13
2023-04-03T07:45:53.440Z,6.18
2023-04-03T07:48:24.359Z,6.78
2023-04-03T07:50:51.540Z,8.52
2023-04-03T07:53:18.590Z,9.35
2023-04-03T07:55:49.969Z,8.05
2023-04-03T07:58:19.098Z,17.33
2023-04-03T08:00:46.469Z,4.00
2023-04-03T08:03:13.858Z,16.88
2023-04-03T08:05:46.915Z,6.18
2023-04-03T08:08:15.560Z,4.80
2023-04-03T08:10:42.327Z,8.35
2023-04-03T08:13:09.637Z,6.57
2023-04-03T08:15:37.963Z,10.25
2023-04-03T08:18:05.244Z,5.88
2023-04-03T08:20:32.070Z,10.95
2023-04-03T08:22:58.728Z,21.83
2023-04-03T08:25:25.738Z,11.63
2023-04-03T08:27:52.741Z,19.48
2023-04-03T08:30:19.452Z,11.55
2023-04-03T08:32:46.273Z,15.63
2023-04-03T08:35:13.161Z,7.15
2023-04-03T08:37:43.194Z,19.25
2023-04-03T08:40:15.158Z,5.53
2023-04-03T08:43:09.862Z,14.57
2023-04-03T08:50:16.260Z,7.15
2023-04-03T08:52:48.060Z,11.52
2023-04-03T08:55:24.678Z,5.68
2023-04-03T08:58:02.727Z,9.38
2023-04-03T09:00:42.190Z,6.72
2023-04-03T09:03:13.855Z,5.70
2023-04-03T09:05:49.163Z,9.45
2023-04-03T09:08:27.023Z,10.32
2023-04-03T09:11:05.529Z,8.98
2023-04-03T09:13:37.886Z,7.35
2023-04-03T09:16:20.677Z,11.05
2023-04-03T09:18:56.835Z,24.63
2023-04-03T09:21:37.902Z,10.93
2023-04-03T09:24:08.725Z,9.65
2023-04-03T09:26:40.351Z,8.48
2023-04-03T09:29:08.586Z,5.47
2023-04-03T09:31:42.329Z,7.40
2023-04-03T09:34:28.478Z,11.45
2023-04-03T09:36:58.274Z,13.93
2023-04-03T09:39:28.551Z,12.10
2023-04-03T09:42:21.148Z,12.70
2023-04-03T09:47:31.116Z,7.07
2023-04-03T09:50:15.945Z,7.68
2023-04-03T09:52:44.912Z,5.47
2023-04-03T09:55:20.476Z,11.63
2023-04-03T09:57:47.603Z,6.75
2023-04-03T10:00:36.536Z,14.07
2023-04-03T10:03:05.396Z,9.82
2023-04-03T10:05:40.058Z,9.00
2023-04-03T10:08:15.492Z,6.50
2023-04-03T10:11:05.548Z,13.45
2023-04-03T10:13:36.221Z,7.55
2023-04-03T10:16:15.942Z,7.10
2023-04-03T10:18:48.668Z,7.43
2023-04-03T10:21:59.164Z,6.13
2023-04-03T10:24:36.988Z,9.48
2023-04-03T10:27:36.860Z,6.35
2023-04-03T10:30:31.653Z,11.27
2023-04-03T10:33:11.333Z,14.68
2023-04-03T10:35:45.174Z,7.45
2023-04-03T10:38:29.607Z,9.68
2023-04-03T10:41:08.750Z,16.58
2023-04-03T10:43:40.585Z,11.27
2023-04-03T10:46:31.616Z,7.88
2023-04-03T10:49:10.255Z,10.77
2023-04-03T10:51:48.441Z,11.10
2023-04-03T10:54:33.420Z,6.70
2023-04-03T10:57:12.405Z,6.88
2023-04-03T10:59:50.954Z,9.70
2023-04-03T11:02:33.017Z,9.80
2023-04-03T11:05:10.353Z,18.20
2023-04-03T11:07:47.155Z,7.85
2023-04-03T11:10:22.173Z,8.27
2023-04-03T11:13:07.676Z,9.35
2023-04-03T11:15:34.325Z,9.88
2023-04-03T11:18:11.839Z,7.55
2023-04-03T11:20:43.194Z,14.00
2023-04-03T11:23:42.310Z,9.65
2023-04-03T11:26:18.897Z,10.23
2023-04-03T11:28:46.867Z,9.60
2023-04-03T11:32:03.825Z,7.95
2023-04-03T11:34:41.742Z,5.68
2023-04-03T11:37:26.112Z,7.05
2023-04-03T11:39:58.526Z,4.38
2023-04-03T11:42:43.583Z,6.43
2023-04-03T11:45:34.612Z,5.22
2023-04-03T11:48:32.513Z,24.40
2023-04-03T11:51:23.014Z,6.05
2023-04-03T11:53:49.937Z,12.60
2023-04-03T11:56:25.794Z,7.80
2023-04-03T11:59:14.666Z,9.90
2023-04-03T12:01:55.385Z,5.03
2023-04-03T12:04:25.173Z,10.63
2023-04-03T12:06:54.200Z,4.60
2023-04-03T12:09:25.743Z,9.60
2023-04-03T12:11:53.200Z,5.43
2023-04-03T12:14:25.203Z,7.68
2023-04-03T12:16:54.316Z,6.88
2023-04-03T12:19:45.936Z,6.65
2023-04-03T12:22:20.139Z,5.70
2023-04-03T12:24:51.486Z,7.20
2023-04-03T12:27:34.178Z,9.67
2023-04-03T12:30:19.790Z,6.60
2023-04-03T12:33:11.889Z,11.23
2023-04-03T12:35:48.388Z,3.95
2023-04-03T12:38:28.190Z,7.85
2023-04-03T12:41:22.634Z,3.97
2023-04-03T12:44:04.443Z,5.47
2023-04-03T12:46:46.154Z,6.65
2023-04-03T12:49:27.512Z,7.85
2023-04-03T12:51:55.513Z,7.00
2023-04-03T12:54:38.165Z,6.10
2023-04-03T12:57:22.229Z,7.03
2023-04-03T12:59:49.454Z,8.15
2023-04-03T13:02:37.006Z,11.63
2023-04-03T13:05:15.648Z,7.38
2023-04-03T13:07:44.440Z,12.07
2023-04-03T13:10:10.934Z,12.18
2023-04-03T13:12:53.399Z,5.22
2023-04-03T13:17:52.532Z,6.97
2023-04-03T13:20:26.693Z,7.57
2023-04-03T13:23:18.342Z,6.72
2023-04-03T13:25:46.475Z,7.93
2023-04-03T13:28:16.675Z,7.32
2023-04-03T13:30:57.689Z,5.45
2023-04-03T13:33:27.729Z,14.00
2023-04-03T13:36:07.425Z,8.38
2023-04-03T13:38:34.958Z,5.50
2023-04-03T13:41:23.609Z,3.60
2023-04-03T13:43:51.990Z,5.55
2023-04-03T13:46:20.558Z,5.20
2023-04-03T13:48:52.088Z,4.10
2023-04-03T13:51:26.002Z,7.75
2023-04-03T13:53:59.798Z,6.80
2023-04-03T13:56:38.801Z,4.63
2023-04-03T13:59:14.521Z,10.60
2023-04-03T14:01:51.524Z,5.15
2023-04-03T14:04:24.806Z,4.97
2023-04-03T14:06:52.516Z,7.75
2023-04-03T14:09:20.824Z,11.23
2023-04-03T14:11:50.470Z,13.55
2023-04-03T14:14:22.135Z,7.28
2023-04-03T14:16:54.114Z,7.65
2023-04-03T14:19:25.379Z,4.82
2023-04-03T14:21:53.587Z,5.70
2023-04-03T14:24:23.714Z,7.25
2023-04-03T14:26:52.809Z,8.73
2023-04-03T14:29:21.355Z,8.00
2023-04-03T14:31:50.617Z,9.15
2023-04-03T14:34:18.502Z,4.50
2023-04-03T14:36:46.225Z,4.65
2023-04-03T14:39:19.500Z,7.15
2023-04-03T14:41:48.851Z,6.35
2023-04-03T14:44:15.414Z,4.53
2023-04-03T14:46:56.239Z,5.85
2023-04-03T14:49:28.870Z,6.13
2023-04-03T14:51:57.126Z,8.55
2023-04-03T14:54:29.934Z,6.80
2023-04-03T14:56:59.103Z,8.05
2023-04-03T14:59:32.877Z,14.55
2023-04-03T15:01:59.670Z,7.22
2023-04-03T15:04:26.876Z,9.82
2023-04-03T15:06:54.024Z,6.10
2023-04-03T15:09:25.836Z,4.65
2023-04-03T15:11:54.098Z,8.88
2023-04-03T15:14:35.970Z,9.45
2023-04-03T15:17:11.727Z,8.65
2023-04-03T15:19:40.207Z,11.25
2023-04-03T15:22:07.089Z,16.48
2023-04-03T15:24:33.760Z,7.93
2023-04-03T15:27:01.637Z,12.95
2023-04-03T15:29:28.749Z,8.95
2023-04-03T15:31:55.588Z,10.23
2023-04-03T15:34:22.881Z,8.52
2023-04-03T15:36:51.029Z,9.13
2023-04-03T15:39:17.748Z,6.40
2023-04-03T15:41:44.982Z,5.38
2023-04-03T15:44:13.052Z,8.98
2023-04-03T15:46:42.713Z,6.53
2023-04-03T15:49:09.464Z,9.20
2023-04-03T15:51:36.778Z,7.15
2023-04-03T15:54:03.544Z,10.05
2023-04-03T15:56:30.369Z,15.90
2023-04-03T15:58:56.979Z,9.45
2023-04-03T16:01:24.078Z,11.57
2023-04-03T16:03:50.856Z,6.95
2023-04-03T16:06:19.718Z,9.05
2023-04-03T16:08:50.429Z,6.97
2023-04-03T16:11:16.961Z,11.88
2023-04-03T16:13:43.751Z,7.75
2023-04-03T16:16:10.739Z,8.27
2023-04-03T16:18:37.686Z,8.75
2023-04-03T16:21:04.493Z,7.40
2023-04-03T16:23:31.197Z,13.15
2023-04-03T16:25:58.186Z,8.38
2023-04-03T16:28:24.724Z,4.90
2023-04-03T16:30:51.831Z,8.98
2023-04-03T16:33:18.747Z,8.90
2023-04-03T16:35:45.403Z,11.45
2023-04-03T16:38:12.171Z,16.25
2023-04-03T16:40:39.221Z,6.75
2023-04-03T16:43:05.765Z,8.90
2023-04-03T16:45:32.464Z,13.07
2023-04-03T16:47:59.062Z,8.93
2023-04-03T16:50:26.168Z,7.15
2023-04-03T16:52:52.758Z,10.10
2023-04-03T16:55:19.533Z,8.32
2023-04-03T16:57:46.058Z,10.85
2023-04-03T17:00:13.499Z,19.63
2023-04-03T17:02:43.273Z,9.00
2023-04-03T17:05:09.934Z,6.80
2023-04-03T17:07:36.486Z,15.25
2023-04-03T17:10:06.663Z,10.55
2023-04-03T17:12:33.186Z,6.60
2023-04-03T17:14:59.694Z,7.68
2023-04-03T17:17:27.037Z,10.23
2023-04-03T17:19:55.767Z,11.75
2023-04-03T17:22:22.436Z,9.85
2023-04-03T17:24:48.934Z,15.90
2023-04-03T17:27:15.533Z,14.35
2023-04-03T17:29:44.166Z,7.93
2023-04-03T17:32:10.863Z,9.20
2023-04-03T17:37:06.889Z,18.20
2023-04-03T17:39:33.490Z,9.30
2023-04-03T17:42:01.575Z,14.43
2023-04-03T17:44:28.683Z,14.10
2023-04-03T17:46:55.475Z,14.70
2023-04-03T17:49:22.412Z,10.35
2023-04-03T17:51:49.419Z,10.65
2023-04-03T17:54:16.837Z,12.10
2023-04-03T17:56:47.919Z,16.98
2023-04-03T17:59:16.465Z,11.75
2023-04-03T18:01:46.611Z,17.50
2023-04-03T18:04:14.874Z,30.63
2023-04-03T18:06:46.587Z,48.40
2023-04-03T18:09:26.053Z,25.67
2023-04-03T18:11:53.785Z,17.83
2023-04-03T18:14:23.790Z,33.63
2023-04-03T18:16:50.574Z,18.55
2023-04-03T18:19:23.578Z,15.95
2023-04-03T18:21:56.991Z,10.57
2023-04-03T18:24:25.159Z,20.58
2023-04-03T18:26:56.997Z,17.60
2023-04-03T18:29:24.281Z,12.65
2023-04-03T18:31:54.251Z,10.82
2023-04-03T18:34:20.918Z,14.50
2023-04-03T18:36:47.733Z,20.10
2023-04-03T18:39:14.931Z,16.63
2023-04-03T18:41:42.374Z,16.15
2023-04-03T18:44:13.218Z,12.60
2023-04-03T18:46:40.316Z,13.75
2023-04-03T18:49:09.015Z,11.88
2023-04-03T18:51:35.910Z,21.35
2023-04-03T18:54:03.488Z,15.63
2023-04-03T18:56:31.047Z,15.48
2023-04-03T18:58:57.687Z,11.48
2023-04-03T19:01:24.446Z,14.80
2023-04-03T19:03:57.169Z,15.85
2023-04-03T19:06:28.193Z,25.45
2023-04-03T19:08:54.967Z,18.75
2023-04-03T19:11:21.529Z,17.52
2023-04-03T19:14:04.415Z,23.90
2023-04-03T19:16:34.974Z,23.27
2023-04-03T19:19:04.763Z,17.08
2023-04-03T19:21:31.637Z,20.30
2023-04-03T19:23:59.183Z,19.30
2023-04-03T19:26:27.018Z,21.45
2023-04-03T19:28:53.694Z,16.08
2023-04-03T19:31:21.888Z,15.68
2023-04-03T19:33:51.602Z,19.98
2023-04-03T19:36:18.831Z,19.40
2023-04-03T19:38:45.825Z,49.63
2023-04-03T19:41:17.555Z,30.85
2023-04-03T19:43:45.173Z,23.80
2023-04-03T19:46:12.313Z,25.38
2023-04-03T19:48:39.004Z,18.35
2023-04-03T19:51:06.178Z,19.67
2023-04-03T19:53:32.897Z,22.05
2023-04-03T19:56:01.061Z,32.90
2023-04-03T19:58:29.797Z,30.23
2023-04-03T20:00:58.008Z,29.65
2023-04-03T20:03:25.499Z,35.40
2023-04-03T20:05:53.131Z,36.13
2023-04-03T20:08:20.476Z,28.95
2023-04-03T20:10:47.052Z,30.95
2023-04-03T20:13:13.843Z,40.58
2023-04-03T20:15:42.769Z,37.08
2023-04-03T20:18:18.203Z,34.63
2023-04-03T20:21:03.168Z,34.40
2023-04-03T20:23:30.778Z,35.30
2023-04-03T20:26:09.513Z,29.27
2023-04-03T20:28:39.381Z,30.15
2023-04-03T20:31:07.856Z,18.42
2023-04-03T20:33:35.357Z,25.75
2023-04-03T20:36:02.472Z,21.88
2023-04-03T20:38:29.321Z,25.77
2023-04-03T20:40:55.853Z,22.75
2023-04-03T20:43:23.391Z,21.02
2023-04-03T20:45:50.790Z,23.20
2023-04-03T20:48:20.327Z,16.52
2023-04-03T20:50:47.584Z,17.55
2023-04-03T20:53:14.841Z,17.63
2023-04-03T20:55:42.122Z,16.05
2023-04-03T20:58:08.742Z,21.00
2023-04-03T21:00:37.536Z,18.67
2023-04-03T21:03:04.241Z,12.40
2023-04-03T21:05:33.317Z,12.48
2023-04-03T21:08:37.625Z,11.30
2023-04-03T21:11:41.599Z,20.05
2023-04-03T21:14:46.810Z,13.60
2023-04-03T21:17:13.408Z,10.45
2023-04-03T21:19:46.105Z,22.52
2023-04-03T21:22:13.664Z,12.35
2023-04-03T21:24:40.543Z,16.98
2023-04-03T21:27:07.293Z,15.85
2023-04-03T21:29:33.866Z,17.17
2023-04-03T21:32:01.570Z,18.58
2023-04-03T21:34:31.773Z,21.80
2023-04-03T21:37:04.585Z,15.77
2023-04-03T21:39:32.161Z,10.85
2023-04-03T21:41:58.862Z,14.10
2023-04-03T21:44:25.988Z,17.63
2023-04-03T21:46:54.343Z,20.27
2023-04-03T21:49:22.824Z,14.02
2023-04-03T21:51:51.695Z,12.25
2023-04-03T21:54:19.836Z,21.17
2023-04-03T21:56:48.052Z,17.23
2023-04-03T21:59:15.852Z,13.82
2023-04-03T22:01:42.831Z,15.48
2023-04-03T22:04:09.637Z,14.98
2023-04-03T22:06:37.579Z,14.30
2023-04-03T22:09:04.361Z,16.88
2023-04-03T22:11:31.202Z,16.98
2023-04-03T22:14:00.414Z,15.50
2023-04-03T22:16:27.383Z,13.68
2023-04-03T22:18:54.685Z,18.95
2023-04-03T22:21:22.283Z,12.38
2023-04-03T22:23:49.159Z,13.75
2023-04-03T22:26:16.057Z,27.42
2023-04-03T22:28:44.893Z,20.67
2023-04-03T22:31:14.078Z,17.05
2023-04-03T22:33:42.106Z,14.70
2023-04-03T22:36:11.203Z,20.42
2023-04-03T22:38:39.165Z,13.68
2023-04-03T22:41:07.615Z,20.50
2023-04-03T22:43:36.680Z,13.18
2023-04-03T22:46:08.545Z,13.88
2023-04-03T22:48:35.848Z,13.80
2023-04-03T22:51:07.362Z,13.85
2023-04-03T22:53:34.780Z,21.52
2023-04-03T22:56:03.358Z,11.77
2023-04-03T22:58:30.666Z,14.27
2023-04-03T23:01:08.352Z,12.95
2023-04-03T23:03:36.326Z,15.18
2023-04-03T23:06:04.363Z,14.70
2023-04-03T23:08:32.657Z,15.73
2023-04-03T23:10:59.917Z,11.50
2023-04-03T23:13:27.388Z,13.05
2023-04-03T23:15:58.889Z,16.05
2023-04-03T23:18:31.883Z,16.30
2023-04-03T23:20:59.569Z,10.13
2023-04-03T23:23:26.463Z,15.63
2023-04-03T23:25:53.569Z,12.70
2023-04-03T23:28:20.982Z,8.88
2023-04-03T23:30:48.113Z,13.90
2023-04-03T23:33:15.092Z,17.80
2023-04-03T23:35:48.563Z,13.93
2023-04-03T23:38:16.418Z,15.40
2023-04-03T23:40:43.332Z,13.00
2023-04-03T23:43:10.052Z,11.73
2023-04-03T23:45:37.211Z,17.52
2023-04-03T23:48:04.203Z,10.93
2023-04-03T23:50:31.135Z,11.65
2023-04-03T23:52:57.792Z,17.83
2023-04-03T23:55:24.504Z,9.95
2023-04-03T23:57:51.054Z,15.73
